Clatskanie, Oregon
Current Conditions -  °F | °C
As of 4:15 PM on Saturday 25 Oct 2014 (Local Time) from KKLS Reporting Station
Broken Clouds Broken Clouds  
Wind Chill: 61°   Ceiling: 4800
Heat Index: 61°   Visibility: 10mi
Dew Point: 52°   Wind: 22mph
Humidity: 72%   Direction: 170°S
Pressure: 29.38"   Gusts: 29mph
Location:  46.1°N, 123.21°W
Report Text: KKLS 252315Z AUTO 17019G25KT 10SM FEW035 SCT043 BKN048 16/11 A2938 RMK AO1
Loading
Personal Weather Stations






























Interactive Weather Map
Tropical Storm Tracking
New forecast layout! Learn more

10-Day Weather Forecast

Advertisements
Track Severe Weather on mobile